Ever Ursula — 3FCB9 — position and weather

sailwx.info

Track history (hours):
 
Tides and Currents Weather Stations Pressure Air Temp Water Temp Dewpoint Dewpoint Depression Visibility Wind Speed Wind Dir Waves Ship Positions

Ever Ursula

Last reported at 2016-Jun-25 12:33 UTC. Time now 2016-Jun-25 17:56 UTC.
Position N 38°10' W 125°30'.

Type: Cargo ship. MMSI: 357737000.

Date/timePositionNaut miles runAvg speedWind from/ knotsBaromVisibWave heightAir tempDewpointWater temp
2016-Jun-25 12:33N 38°10' W 125°30'1515.1
2016-Jun-25 11:33N 38°10' W 125°11'1515.1
2016-Jun-25 10:33N 38°10' W 124°52'1515.5
2016-Jun-25 09:33N 38°10' W 124°32'1515.1
2016-Jun-25 08:33N 38°10' W 124°13'1515.3
2016-Jun-25 07:33N 38°10' W 123°54'1515.0
2016-Jun-25 06:33N 38°10' W 123°35'1212.2
2016-Jun-25 05:34N 38°08' W 123°19'9 9.2
2016-Jun-25 04:33N 38°01' W 123°12'9 9.2
2016-Jun-25 03:33N 37°56' W 123°02'9 9.4
2016-Jun-25 02:33N 37°51' W 122°52'10 9.5
2016-Jun-25 01:34N 37°46' W 122°42'1110.8
2016-Jun-25 00:33N 37°49' W 122°29'7 6.9
2016-Jun-24 23:33N 37°48' W 122°20'0 0.0
2016-Jun-24 22:33N 37°48' W 122°20'0 0.0
2016-Jun-24 21:33N 37°48' W 122°20'0 0.0
2016-Jun-24 20:27N 37°48' W 122°20'0 0.0
2016-Jun-24 19:33N 37°48' W 122°20'0 0.0
2016-Jun-24 18:33N 37°48' W 122°20'0 0.0
2016-Jun-24 17:32N 37°48' W 122°20'0 0.0
2016-Jun-24 16:32N 37°48' W 122°20'0 0.0
2016-Jun-24 15:32N 37°48' W 122°20'0 0.0
2016-Jun-24 14:32N 37°48' W 122°20'0 0.0
2016-Jun-24 13:32N 37°48' W 122°20'0 0.0
2016-Jun-24 12:32N 37°48' W 122°20'0 0.0
2016-Jun-24 11:32N 37°48' W 122°20'0 0.0
2016-Jun-24 10:32N 37°48' W 122°20'0 0.0
2016-Jun-24 09:32N 37°48' W 122°20'0 0.0
2016-Jun-24 08:32N 37°48' W 122°20'0 0.0
2016-Jun-24 07:32N 37°48' W 122°20'0 0.0
2016-Jun-24 04:32N 37°48' W 122°20'0 0.0
2016-Jun-24 03:32N 37°48' W 122°20'0 0.0
2016-Jun-24 02:32N 37°48' W 122°20'0 0.0
2016-Jun-24 01:32N 37°48' W 122°20'0 0.0
2016-Jun-24 00:32N 37°48' W 122°20'0 0.0
2016-Jun-23 23:32N 37°48' W 122°20'1 0.7
2016-Jun-23 22:33N 37°49' W 122°20'7 6.9
2016-Jun-23 21:32N 37°49' W 122°28'1111.5
2016-Jun-23 20:33N 37°43' W 122°40'9 8.9
2016-Jun-23 19:34N 37°34' W 122°39'9 9.2
2016-Jun-23 18:34N 37°25' W 122°39'9 8.8
2016-Jun-23 17:34N 37°16' W 122°37'1414.3
2016-Jun-23 16:34N 37°05' W 122°26'8 8.1
2016-Jun-23 15:33N 36°59' W 122°19'2 2.0
2016-Jun-23 14:34N 37°00' W 122°21'2 2.0
2016-Jun-23 13:34N 37°02' W 122°23'2 2.2
2016-Jun-23 12:33N 37°03' W 122°25'2 2.3
2016-Jun-23 11:33N 37°04' W 122°28'2 2.3
2016-Jun-23 10:33N 37°05' W 122°30'2 2.2
2016-Jun-23 09:32N 37°06' W 122°33'2 1.9
2016-Jun-23 08:33N 37°07' W 122°35'2 1.6
2016-Jun-23 07:34N 37°07' W 122°37'2 1.1
2016-Jun-23 05:33N 37°09' W 122°39'1111.4
2016-Jun-23 04:33N 36°57' W 122°39'1312.8
2016-Jun-23 03:33N 36°45' W 122°39'1212.3
2016-Jun-23 02:33N 36°32' W 122°39'1211.7
2016-Jun-23 01:33N 36°21' W 122°36'1212.3
2016-Jun-23 00:33N 36°11' W 122°27'1212.0
2016-Jun-22 23:33N 36°01' W 122°19'1212.1
2016-Jun-22 22:33N 35°51' W 122°10'1211.7
2016-Jun-22 21:33N 35°42' W 122°02'1211.7
2016-Jun-22 20:33N 35°32' W 121°53'1312.8
2016-Jun-22 19:33N 35°22' W 121°43'1312.6
2016-Jun-22 18:33N 35°12' W 121°35'1212.4
2016-Jun-22 17:34N 35°02' W 121°26'1312.6
2016-Jun-22 16:33N 34°51' W 121°17'1312.6
2016-Jun-22 15:33N 34°41' W 121°08'1312.6
2016-Jun-22 14:34N 34°31' W 120°59'1212.3
2016-Jun-22 13:33N 34°24' W 120°46'1313.3
2016-Jun-22 12:34N 34°21' W 120°30'1414.1
2016-Jun-22 11:33N 34°18' W 120°14'1414.1
2016-Jun-22 10:33N 34°14' W 119°57'1312.9
2016-Jun-22 09:33N 34°11' W 119°42'1313.5
2016-Jun-22 08:33N 34°07' W 119°27'1413.8
2016-Jun-22 07:33N 34°02' W 119°11'1312.6
2016-Jun-22 06:33N 33°56' W 118°58'1111.0
2016-Jun-22 05:33N 33°50' W 118°46'1111.3
2016-Jun-22 04:33N 33°45' W 118°35'1111.2
2016-Jun-22 03:33N 33°39' W 118°23'7 7.1
2016-Jun-22 02:33N 33°43' W 118°16'1 0.9
2016-Jun-22 01:33N 33°44' W 118°15'0 0.0
2016-Jun-22 00:33N 33°44' W 118°15'0 0.0
2016-Jun-21 23:33N 33°44' W 118°15'0 0.1
2016-Jun-21 22:33N 33°44' W 118°15'0 0.0
2016-Jun-21 21:33N 33°44' W 118°15'0 0.0
2016-Jun-21 20:33N 33°44' W 118°15'0 0.0
2016-Jun-21 19:33N 33°44' W 118°15'0 0.0
2016-Jun-21 18:33N 33°44' W 118°15'0 0.0
2016-Jun-21 17:33N 33°44' W 118°15'0 0.0
2016-Jun-21 16:33N 33°44' W 118°15'0 0.0
2016-Jun-21 15:33N 33°44' W 118°15'0 0.0
2016-Jun-21 14:33N 33°44' W 118°15'0 0.0
2016-Jun-21 13:33N 33°44' W 118°15'0 0.0
2016-Jun-21 12:33N 33°44' W 118°15'0 0.0
2016-Jun-21 11:33N 33°44' W 118°15'0 0.0
2016-Jun-21 10:33N 33°44' W 118°15'0 0.0
2016-Jun-21 09:33N 33°44' W 118°15'0 0.0
2016-Jun-21 08:33N 33°44' W 118°15'0 0.0
2016-Jun-21 07:33N 33°44' W 118°15'0 0.0
2016-Jun-21 05:33N 33°44' W 118°15'0 0.0
2016-Jun-21 04:33N 33°44' W 118°15'0 0.0
2016-Jun-21 03:33N 33°44' W 118°15'0 0.0
2016-Jun-21 02:33N 33°44' W 118°15'0 0.0
2016-Jun-21 01:33N 33°44' W 118°15'0 0.1
2016-Jun-21 00:33N 33°44' W 118°15'0 0.1
2016-Jun-20 23:33N 33°44' W 118°15'0 0.0
2016-Jun-20 22:33N 33°44' W 118°15'0 0.0
2016-Jun-20 21:33N 33°44' W 118°15'0 0.0
2016-Jun-20 20:33N 33°44' W 118°15'0 0.0
2016-Jun-20 19:33N 33°44' W 118°15'0 0.0
2016-Jun-20 18:33N 33°44' W 118°15'0 0.0
2016-Jun-20 17:33N 33°44' W 118°15'0 0.0
2016-Jun-20 16:34N 33°44' W 118°15'0 0.0
2016-Jun-20 15:33N 33°44' W 118°15'0 0.0
2016-Jun-20 14:34N 33°44' W 118°15'0 0.0
2016-Jun-20 13:34N 33°44' W 118°15'0 0.0
2016-Jun-20 12:34N 33°44' W 118°15'0 0.1
2016-Jun-20 11:34N 33°44' W 118°15'0 0.1
2016-Jun-20 10:33N 33°44' W 118°15'0 0.0
2016-Jun-20 09:34N 33°44' W 118°15'0 0.0
2016-Jun-20 08:34N 33°44' W 118°15'0 0.0
2016-Jun-20 07:34N 33°44' W 118°15'0 0.0
2016-Jun-20 06:34N 33°44' W 118°15'0 0.0
2016-Jun-20 05:34N 33°44' W 118°15'0 0.0
2016-Jun-20 04:34N 33°44' W 118°15'0 0.0
2016-Jun-20 03:34N 33°44' W 118°15'0 0.1
2016-Jun-20 02:34N 33°44' W 118°15'0 0.1
2016-Jun-20 01:34N 33°44' W 118°15'0 0.0
2016-Jun-20 00:34N 33°44' W 118°15'0 0.0
2016-Jun-19 23:33N 33°44' W 118°15'0 0.0
2016-Jun-19 22:34N 33°44' W 118°15'5 4.7
2016-Jun-19 21:34N 33°39' W 118°14'8 8.5
2016-Jun-19 20:34N 33°36' W 118°23'1111.2
2016-Jun-19 19:33N 33°36' W 118°37'1111.4
2016-Jun-19 18:34N 33°35' W 118°50'1211.1
2016-Jun-19 17:31N 33°36' W 119°04'1314.1
2016-Jun-19 16:33N 33°36' W 119°20'1615.6
2016-Jun-19 15:34N 33°36' W 119°39'1414.5
2016-Jun-19 14:34N 33°36' W 119°57'1514.7
2016-Jun-19 13:33N 33°36' W 120°14'1414.4
2016-Jun-19 12:33N 33°37' W 120°31'1514.5
2016-Jun-19 11:33N 33°37' W 120°49'1414.0
2016-Jun-19 10:33N 33°37' W 121°06'1413.8
2016-Jun-19 09:33N 33°37' W 121°22'1414.1
2016-Jun-19 08:33N 33°37' W 121°39'1514.1
2016-Jun-19 07:30N 33°37' W 121°57'1414.5
2016-Jun-19 06:33N 33°37' W 122°14'1414.1
2016-Jun-19 05:33N 33°38' W 122°30'1313.4
2016-Jun-19 04:33N 33°38' W 122°47'1413.2
2016-Jun-19 03:31N 33°38' W 123°03'1313.5
2016-Jun-19 02:33N 33°38' W 123°19'1413.8
2016-Jun-19 01:30N 33°38' W 123°36'1313.7
2016-Jun-19 00:33N 33°38' W 123°52'  
Track history (hours):
 
Tides and Currents Weather Stations Pressure Air Temp Water Temp Dewpoint Dewpoint Depression Visibility Wind Speed Wind Dir Waves Ship Positions

Ever Ursula

Last reported at 2016-Jun-25 12:33 UTC. Time now 2016-Jun-25 17:56 UTC.
Position N 38°10' W 125°30'.

Type: Cargo ship. MMSI: 357737000.

Date/timePositionNaut miles runAvg speedWind from/ knotsBaromVisibWave heightAir tempDewpointWater temp
2016-Jun-25 12:33N 38°10' W 125°30'1515.1
2016-Jun-25 11:33N 38°10' W 125°11'1515.1
2016-Jun-25 10:33N 38°10' W 124°52'1515.5
2016-Jun-25 09:33N 38°10' W 124°32'1515.1
2016-Jun-25 08:33N 38°10' W 124°13'1515.3
2016-Jun-25 07:33N 38°10' W 123°54'1515.0
2016-Jun-25 06:33N 38°10' W 123°35'1212.2
2016-Jun-25 05:34N 38°08' W 123°19'9 9.2
2016-Jun-25 04:33N 38°01' W 123°12'9 9.2
2016-Jun-25 03:33N 37°56' W 123°02'9 9.4
2016-Jun-25 02:33N 37°51' W 122°52'10 9.5
2016-Jun-25 01:34N 37°46' W 122°42'1110.8
2016-Jun-25 00:33N 37°49' W 122°29'7 6.9
2016-Jun-24 23:33N 37°48' W 122°20'0 0.0
2016-Jun-24 22:33N 37°48' W 122°20'0 0.0
2016-Jun-24 21:33N 37°48' W 122°20'0 0.0
2016-Jun-24 20:27N 37°48' W 122°20'0 0.0
2016-Jun-24 19:33N 37°48' W 122°20'0 0.0
2016-Jun-24 18:33N 37°48' W 122°20'0 0.0
2016-Jun-24 17:32N 37°48' W 122°20'0 0.0
2016-Jun-24 16:32N 37°48' W 122°20'0 0.0
2016-Jun-24 15:32N 37°48' W 122°20'0 0.0
2016-Jun-24 14:32N 37°48' W 122°20'0 0.0
2016-Jun-24 13:32N 37°48' W 122°20'0 0.0
2016-Jun-24 12:32N 37°48' W 122°20'0 0.0
2016-Jun-24 11:32N 37°48' W 122°20'0 0.0
2016-Jun-24 10:32N 37°48' W 122°20'0 0.0
2016-Jun-24 09:32N 37°48' W 122°20'0 0.0
2016-Jun-24 08:32N 37°48' W 122°20'0 0.0
2016-Jun-24 07:32N 37°48' W 122°20'0 0.0
2016-Jun-24 04:32N 37°48' W 122°20'0 0.0
2016-Jun-24 03:32N 37°48' W 122°20'0 0.0
2016-Jun-24 02:32N 37°48' W 122°20'0 0.0
2016-Jun-24 01:32N 37°48' W 122°20'0 0.0
2016-Jun-24 00:32N 37°48' W 122°20'0 0.0
2016-Jun-23 23:32N 37°48' W 122°20'1 0.7
2016-Jun-23 22:33N 37°49' W 122°20'7 6.9
2016-Jun-23 21:32N 37°49' W 122°28'1111.5
2016-Jun-23 20:33N 37°43' W 122°40'9 8.9
2016-Jun-23 19:34N 37°34' W 122°39'9 9.2
2016-Jun-23 18:34N 37°25' W 122°39'9 8.8
2016-Jun-23 17:34N 37°16' W 122°37'1414.3
2016-Jun-23 16:34N 37°05' W 122°26'8 8.1
2016-Jun-23 15:33N 36°59' W 122°19'2 2.0
2016-Jun-23 14:34N 37°00' W 122°21'2 2.0
2016-Jun-23 13:34N 37°02' W 122°23'2 2.2
2016-Jun-23 12:33N 37°03' W 122°25'2 2.3
2016-Jun-23 11:33N 37°04' W 122°28'2 2.3
2016-Jun-23 10:33N 37°05' W 122°30'2 2.2
2016-Jun-23 09:32N 37°06' W 122°33'2 1.9
2016-Jun-23 08:33N 37°07' W 122°35'2 1.6
2016-Jun-23 07:34N 37°07' W 122°37'2 1.1
2016-Jun-23 05:33N 37°09' W 122°39'1111.4
2016-Jun-23 04:33N 36°57' W 122°39'1312.8
2016-Jun-23 03:33N 36°45' W 122°39'1212.3
2016-Jun-23 02:33N 36°32' W 122°39'1211.7
2016-Jun-23 01:33N 36°21' W 122°36'1212.3
2016-Jun-23 00:33N 36°11' W 122°27'1212.0
2016-Jun-22 23:33N 36°01' W 122°19'1212.1
2016-Jun-22 22:33N 35°51' W 122°10'1211.7
2016-Jun-22 21:33N 35°42' W 122°02'1211.7
2016-Jun-22 20:33N 35°32' W 121°53'1312.8
2016-Jun-22 19:33N 35°22' W 121°43'1312.6
2016-Jun-22 18:33N 35°12' W 121°35'1212.4
2016-Jun-22 17:34N 35°02' W 121°26'1312.6
2016-Jun-22 16:33N 34°51' W 121°17'1312.6
2016-Jun-22 15:33N 34°41' W 121°08'1312.6
2016-Jun-22 14:34N 34°31' W 120°59'1212.3
2016-Jun-22 13:33N 34°24' W 120°46'1313.3
2016-Jun-22 12:34N 34°21' W 120°30'1414.1
2016-Jun-22 11:33N 34°18' W 120°14'1414.1
2016-Jun-22 10:33N 34°14' W 119°57'1312.9
2016-Jun-22 09:33N 34°11' W 119°42'1313.5
2016-Jun-22 08:33N 34°07' W 119°27'1413.8
2016-Jun-22 07:33N 34°02' W 119°11'1312.6
2016-Jun-22 06:33N 33°56' W 118°58'1111.0
2016-Jun-22 05:33N 33°50' W 118°46'1111.3
2016-Jun-22 04:33N 33°45' W 118°35'1111.2
2016-Jun-22 03:33N 33°39' W 118°23'7 7.1
2016-Jun-22 02:33N 33°43' W 118°16'1 0.9
2016-Jun-22 01:33N 33°44' W 118°15'0 0.0
2016-Jun-22 00:33N 33°44' W 118°15'0 0.0
2016-Jun-21 23:33N 33°44' W 118°15'0 0.1
2016-Jun-21 22:33N 33°44' W 118°15'0 0.0
2016-Jun-21 21:33N 33°44' W 118°15'0 0.0
2016-Jun-21 20:33N 33°44' W 118°15'0 0.0
2016-Jun-21 19:33N 33°44' W 118°15'0 0.0
2016-Jun-21 18:33N 33°44' W 118°15'0 0.0
2016-Jun-21 17:33N 33°44' W 118°15'0 0.0
2016-Jun-21 16:33N 33°44' W 118°15'0 0.0
2016-Jun-21 15:33N 33°44' W 118°15'0 0.0
2016-Jun-21 14:33N 33°44' W 118°15'0 0.0
2016-Jun-21 13:33N 33°44' W 118°15'0 0.0
2016-Jun-21 12:33N 33°44' W 118°15'0 0.0
2016-Jun-21 11:33N 33°44' W 118°15'0 0.0
2016-Jun-21 10:33N 33°44' W 118°15'0 0.0
2016-Jun-21 09:33N 33°44' W 118°15'0 0.0
2016-Jun-21 08:33N 33°44' W 118°15'0 0.0
2016-Jun-21 07:33N 33°44' W 118°15'0 0.0
2016-Jun-21 05:33N 33°44' W 118°15'0 0.0
2016-Jun-21 04:33N 33°44' W 118°15'0 0.0
2016-Jun-21 03:33N 33°44' W 118°15'0 0.0
2016-Jun-21 02:33N 33°44' W 118°15'0 0.0
2016-Jun-21 01:33N 33°44' W 118°15'0 0.1
2016-Jun-21 00:33N 33°44' W 118°15'0 0.1
2016-Jun-20 23:33N 33°44' W 118°15'0 0.0
2016-Jun-20 22:33N 33°44' W 118°15'0 0.0
2016-Jun-20 21:33N 33°44' W 118°15'0 0.0
2016-Jun-20 20:33N 33°44' W 118°15'0 0.0
2016-Jun-20 19:33N 33°44' W 118°15'0 0.0
2016-Jun-20 18:33N 33°44' W 118°15'0 0.0
2016-Jun-20 17:33N 33°44' W 118°15'0 0.0
2016-Jun-20 16:34N 33°44' W 118°15'0 0.0
2016-Jun-20 15:33N 33°44' W 118°15'0 0.0
2016-Jun-20 14:34N 33°44' W 118°15'0 0.0
2016-Jun-20 13:34N 33°44' W 118°15'0 0.0
2016-Jun-20 12:34N 33°44' W 118°15'0 0.1
2016-Jun-20 11:34N 33°44' W 118°15'0 0.1
2016-Jun-20 10:33N 33°44' W 118°15'0 0.0
2016-Jun-20 09:34N 33°44' W 118°15'0 0.0
2016-Jun-20 08:34N 33°44' W 118°15'0 0.0
2016-Jun-20 07:34N 33°44' W 118°15'0 0.0
2016-Jun-20 06:34N 33°44' W 118°15'0 0.0
2016-Jun-20 05:34N 33°44' W 118°15'0 0.0
2016-Jun-20 04:34N 33°44' W 118°15'0 0.0
2016-Jun-20 03:34N 33°44' W 118°15'0 0.1
2016-Jun-20 02:34N 33°44' W 118°15'0 0.1
2016-Jun-20 01:34N 33°44' W 118°15'0 0.0
2016-Jun-20 00:34N 33°44' W 118°15'0 0.0
2016-Jun-19 23:33N 33°44' W 118°15'0 0.0
2016-Jun-19 22:34N 33°44' W 118°15'5 4.7
2016-Jun-19 21:34N 33°39' W 118°14'8 8.5
2016-Jun-19 20:34N 33°36' W 118°23'1111.2
2016-Jun-19 19:33N 33°36' W 118°37'1111.4
2016-Jun-19 18:34N 33°35' W 118°50'1211.1
2016-Jun-19 17:31N 33°36' W 119°04'1314.1
2016-Jun-19 16:33N 33°36' W 119°20'1615.6
2016-Jun-19 15:34N 33°36' W 119°39'1414.5
2016-Jun-19 14:34N 33°36' W 119°57'1514.7
2016-Jun-19 13:33N 33°36' W 120°14'1414.4
2016-Jun-19 12:33N 33°37' W 120°31'1514.5
2016-Jun-19 11:33N 33°37' W 120°49'1414.0
2016-Jun-19 10:33N 33°37' W 121°06'1413.8
2016-Jun-19 09:33N 33°37' W 121°22'1414.1
2016-Jun-19 08:33N 33°37' W 121°39'1514.1
2016-Jun-19 07:30N 33°37' W 121°57'1414.5
2016-Jun-19 06:33N 33°37' W 122°14'1414.1
2016-Jun-19 05:33N 33°38' W 122°30'1313.4
2016-Jun-19 04:33N 33°38' W 122°47'1413.2
2016-Jun-19 03:31N 33°38' W 123°03'1313.5
2016-Jun-19 02:33N 33°38' W 123°19'1413.8
2016-Jun-19 01:30N 33°38' W 123°36'1313.7
2016-Jun-19 00:33N 33°38' W 123°52'  

Dump ship's entire track history